Aviation Digital Data Service (ADDS)

Output produced by METARs form (1726 UTC 16 September 2014)
found at http://aviationweather.gov/adds/metars/
 
KGNV 161601Z 1616/1712 25003KT 6SM -RA OVC040 
     TEMPO 1616/1619 VRB12G22KT 2SM TSRA BKN025CB 
     FM170100 25004KT P6SM VCSH SCT040 BKN100 
     FM170800 28003KT P6SM SCT015